createdAt,value
2023-05-04T00:00:51.698Z,10.25
2023-05-04T00:03:19.532Z,8.18
2023-05-04T00:05:47.313Z,9.98
2023-05-04T00:08:15.093Z,10.20
2023-05-04T00:10:42.831Z,7.30
2023-05-04T00:13:10.663Z,9.73
2023-05-04T00:15:39.854Z,10.32
2023-05-04T00:18:07.935Z,10.40
2023-05-04T00:20:35.727Z,8.60
2023-05-04T00:23:03.436Z,11.52
2023-05-04T00:25:31.120Z,10.27
2023-05-04T00:27:58.776Z,11.35
2023-05-04T00:30:26.452Z,14.15
2023-05-04T00:32:55.608Z,8.43
2023-05-04T00:35:23.400Z,8.70
2023-05-04T00:37:51.089Z,8.70
2023-05-04T00:40:18.871Z,12.07
2023-05-04T00:42:46.670Z,14.23
2023-05-04T00:45:15.595Z,15.68
2023-05-04T00:47:44.192Z,7.20
2023-05-04T00:53:00.202Z,11.13
2023-05-04T00:55:28.043Z,9.13
2023-05-04T00:57:56.476Z,11.60
2023-05-04T01:00:24.379Z,11.85
2023-05-04T01:02:54.475Z,9.35
2023-05-04T01:05:23.805Z,8.52
2023-05-04T01:07:58.875Z,8.52
2023-05-04T01:10:30.106Z,10.77
2023-05-04T01:13:01.682Z,9.00
2023-05-04T01:15:30.383Z,9.57
2023-05-04T01:17:58.282Z,12.75
2023-05-04T01:20:27.569Z,8.80
2023-05-04T01:22:57.181Z,12.50
2023-05-04T01:25:25.536Z,8.98
2023-05-04T01:27:57.831Z,7.72
2023-05-04T01:30:29.294Z,12.43
2023-05-04T01:33:19.917Z,9.18
2023-05-04T01:35:47.784Z,8.50
2023-05-04T01:38:16.987Z,12.88
2023-05-04T01:40:44.717Z,11.05
2023-05-04T01:43:12.546Z,9.90
2023-05-04T01:45:40.332Z,15.80
2023-05-04T01:48:08.161Z,8.73
2023-05-04T01:50:35.938Z,11.82
2023-05-04T01:53:03.708Z,10.40
2023-05-04T01:55:32.897Z,10.05
2023-05-04T01:58:00.696Z,17.42
2023-05-04T02:00:29.118Z,14.32
2023-05-04T02:02:57.113Z,8.00
2023-05-04T02:05:25.018Z,10.43
2023-05-04T02:07:52.806Z,10.60
2023-05-04T02:10:20.597Z,11.88
2023-05-04T02:12:49.773Z,10.45
2023-05-04T02:15:17.631Z,6.22
2023-05-04T02:17:45.422Z,10.55
2023-05-04T02:22:56.167Z,12.93
2023-05-04T02:25:24.769Z,12.45
2023-05-04T02:27:53.910Z,14.35
2023-05-04T02:30:21.853Z,10.73
2023-05-04T02:33:10.423Z,8.57
2023-05-04T02:35:38.167Z,9.90
2023-05-04T02:38:05.957Z,9.73
2023-05-04T02:40:33.718Z,11.37
2023-05-04T02:43:02.839Z,7.50
2023-05-04T02:45:30.599Z,9.93
2023-05-04T02:47:58.457Z,14.05
2023-05-04T02:50:26.223Z,9.73
2023-05-04T02:52:53.993Z,7.28
2023-05-04T02:55:22.049Z,12.63
2023-05-04T02:57:50.035Z,7.68
2023-05-04T03:00:19.608Z,8.37
2023-05-04T03:02:47.408Z,7.22
2023-05-04T03:05:15.138Z,10.18
2023-05-04T03:07:42.870Z,12.57
2023-05-04T03:10:11.750Z,8.55
2023-05-04T03:12:39.909Z,12.20
2023-05-04T03:15:09.140Z,9.53
2023-05-04T03:17:38.381Z,11.73
2023-05-04T03:20:08.112Z,10.52
2023-05-04T03:22:36.047Z,12.23
2023-05-04T03:25:03.951Z,9.07
2023-05-04T03:27:31.693Z,10.82
2023-05-04T03:29:59.449Z,10.40
2023-05-04T03:32:27.729Z,10.48
2023-05-04T03:34:56.911Z,12.07
2023-05-04T03:37:24.989Z,11.95
2023-05-04T03:39:52.717Z,9.90
2023-05-04T03:42:22.971Z,12.23
2023-05-04T03:44:50.768Z,12.52
2023-05-04T03:47:18.519Z,8.57
2023-05-04T03:49:46.511Z,8.73
2023-05-04T03:52:15.609Z,12.50
2023-05-04T03:54:43.322Z,11.65
2023-05-04T03:57:11.208Z,11.93
2023-05-04T03:59:38.931Z,8.77
2023-05-04T04:02:06.777Z,8.27
2023-05-04T04:04:34.843Z,9.32
2023-05-04T04:07:02.677Z,11.48
2023-05-04T04:09:31.812Z,9.63
2023-05-04T04:11:59.835Z,13.30
2023-05-04T04:14:27.611Z,13.57
2023-05-04T04:16:55.377Z,13.63
2023-05-04T04:19:23.091Z,11.82
2023-05-04T04:21:50.991Z,10.18
2023-05-04T04:24:19.191Z,13.27
2023-05-04T04:26:48.296Z,8.93
2023-05-04T04:29:15.987Z,15.52
2023-05-04T04:31:43.737Z,12.75
2023-05-04T04:34:11.502Z,14.68
2023-05-04T04:36:39.504Z,15.48
2023-05-04T04:39:07.398Z,14.33
2023-05-04T04:41:35.117Z,14.43
2023-05-04T04:44:05.068Z,9.80
2023-05-04T04:46:33.695Z,13.93
2023-05-04T04:49:01.452Z,13.05
2023-05-04T04:51:29.445Z,19.13
2023-05-04T04:53:57.108Z,11.00
2023-05-04T04:56:24.806Z,14.32
2023-05-04T04:58:52.527Z,14.32
2023-05-04T05:01:22.004Z,14.82
2023-05-04T05:03:50.329Z,9.97
2023-05-04T05:06:18.030Z,10.18
2023-05-04T05:08:45.800Z,14.73
2023-05-04T05:11:13.559Z,13.73
2023-05-04T05:13:41.550Z,11.55
2023-05-04T05:16:09.408Z,13.43
2023-05-04T05:18:38.561Z,14.82
2023-05-04T05:21:07.491Z,11.27
2023-05-04T05:23:35.673Z,12.15
2023-05-04T05:26:03.670Z,11.25
2023-05-04T05:28:31.549Z,10.97
2023-05-04T05:30:59.342Z,10.05
2023-05-04T05:33:27.057Z,11.82
2023-05-04T05:35:56.351Z,18.03
2023-05-04T05:38:24.297Z,9.63
2023-05-04T05:40:52.297Z,10.32
2023-05-04T05:43:23.025Z,10.32
2023-05-04T05:45:52.808Z,16.63
2023-05-04T05:48:21.932Z,13.93
2023-05-04T05:50:49.958Z,12.77
2023-05-04T05:53:19.313Z,15.38
2023-05-04T05:55:47.708Z,13.95
2023-05-04T05:58:17.128Z,10.00
2023-05-04T06:00:44.997Z,11.93
2023-05-04T06:03:13.260Z,13.10
2023-05-04T06:05:41.860Z,15.35
2023-05-04T06:08:09.816Z,11.25
2023-05-04T06:10:39.889Z,12.18
2023-05-04T06:13:07.872Z,11.75
2023-05-04T06:15:36.730Z,15.63
2023-05-04T06:18:05.100Z,12.00
2023-05-04T06:20:33.348Z,14.97
2023-05-04T06:23:01.993Z,14.30
2023-05-04T06:25:50.215Z,9.70
2023-05-04T06:28:19.585Z,8.90
2023-05-04T06:30:48.496Z,9.95
2023-05-04T06:33:16.561Z,13.48
2023-05-04T06:35:45.695Z,9.60
2023-05-04T06:38:14.771Z,8.63
2023-05-04T06:40:43.216Z,10.40
2023-05-04T06:43:12.857Z,14.27
2023-05-04T06:45:41.381Z,13.80
2023-05-04T06:48:09.545Z,14.23
2023-05-04T06:50:37.525Z,10.05
2023-05-04T06:53:08.183Z,7.13
2023-05-04T06:55:36.222Z,12.57
2023-05-04T06:58:04.134Z,15.00
2023-05-04T07:00:33.616Z,16.55
2023-05-04T07:03:01.456Z,9.88
2023-05-04T07:05:29.640Z,12.80
2023-05-04T07:07:58.882Z,13.55
2023-05-04T07:10:26.882Z,13.15
2023-05-04T07:12:55.067Z,11.35
2023-05-04T07:15:26.630Z,8.60
2023-05-04T07:17:55.876Z,13.82
2023-05-04T07:20:26.071Z,12.77
2023-05-04T07:22:57.308Z,9.57
2023-05-04T07:25:33.933Z,12.80
2023-05-04T07:28:04.196Z,11.27
2023-05-04T07:30:41.398Z,15.40
2023-05-04T07:33:11.496Z,10.07
2023-05-04T07:38:37.509Z,9.80
2023-05-04T07:41:05.271Z,13.98
2023-05-04T07:43:33.373Z,9.23
2023-05-04T07:46:01.570Z,11.07
2023-05-04T07:48:30.691Z,11.43
2023-05-04T07:50:58.353Z,10.38
2023-05-04T07:53:27.072Z,9.70
2023-05-04T07:55:57.290Z,10.75
2023-05-04T07:58:28.556Z,11.90
2023-05-04T08:00:56.187Z,8.90
2023-05-04T08:03:24.033Z,9.10
2023-05-04T08:05:53.695Z,9.30
2023-05-04T08:08:21.924Z,13.35
2023-05-04T08:10:49.567Z,12.45
2023-05-04T08:13:17.266Z,10.73
2023-05-04T08:15:44.879Z,8.77
2023-05-04T08:18:12.555Z,13.02
2023-05-04T08:20:40.237Z,10.25
2023-05-04T08:23:09.309Z,11.23
2023-05-04T08:25:37.223Z,10.20
2023-05-04T08:28:05.102Z,12.45
2023-05-04T08:30:32.737Z,9.57
2023-05-04T08:33:00.469Z,6.75
2023-05-04T08:35:28.819Z,8.63
2023-05-04T08:37:56.757Z,7.95
2023-05-04T08:40:25.816Z,12.98
2023-05-04T08:42:53.725Z,9.68
2023-05-04T08:45:21.437Z,11.93
2023-05-04T08:47:49.408Z,11.07
2023-05-04T08:50:17.171Z,6.55
2023-05-04T08:52:47.483Z,8.57
2023-05-04T08:55:16.996Z,8.77
2023-05-04T08:57:46.285Z,12.40
2023-05-04T09:00:16.868Z,8.75
2023-05-04T09:02:45.642Z,10.40
2023-05-04T09:05:13.596Z,8.18
2023-05-04T09:07:41.237Z,16.33
2023-05-04T09:10:10.082Z,9.80
2023-05-04T09:12:38.807Z,7.85
2023-05-04T09:15:17.783Z,5.70
2023-05-04T09:20:25.741Z,10.07
2023-05-04T09:23:04.139Z,9.85
2023-05-04T09:25:32.203Z,9.00
2023-05-04T09:28:00.080Z,8.48
2023-05-04T09:30:29.233Z,11.18
2023-05-04T09:33:00.169Z,9.43
2023-05-04T09:35:33.192Z,9.20
2023-05-04T09:38:02.019Z,9.05
2023-05-04T09:40:33.780Z,5.20
2023-05-04T09:43:01.914Z,10.33
2023-05-04T09:45:41.776Z,12.15
2023-05-04T09:48:20.046Z,5.22
2023-05-04T09:50:52.696Z,8.77
2023-05-04T09:53:23.097Z,7.13
2023-05-04T09:55:56.897Z,9.93
2023-05-04T09:58:40.259Z,7.97
2023-05-04T10:01:09.462Z,8.57
2023-05-04T10:03:38.014Z,5.72
2023-05-04T10:06:08.890Z,9.93
2023-05-04T10:08:37.168Z,9.90
2023-05-04T10:11:05.245Z,7.50
2023-05-04T10:13:32.941Z,7.28
2023-05-04T10:16:14.184Z,8.90
2023-05-04T10:19:08.865Z,5.75
2023-05-04T10:21:47.339Z,9.75
2023-05-04T10:24:26.744Z,7.68
2023-05-04T10:27:00.999Z,5.75
2023-05-04T10:29:30.925Z,8.25
2023-05-04T10:32:00.641Z,5.23
2023-05-04T10:34:30.067Z,10.05
2023-05-04T10:36:58.921Z,5.40
2023-05-04T10:39:28.150Z,7.22
2023-05-04T10:42:00.334Z,7.68
2023-05-04T10:44:29.170Z,7.18
2023-05-04T10:47:05.844Z,8.63
2023-05-04T10:49:34.209Z,5.10
2023-05-04T10:52:26.510Z,4.25
2023-05-04T10:55:00.312Z,4.17
2023-05-04T10:57:29.301Z,5.85
2023-05-04T10:59:58.423Z,6.32
2023-05-04T11:02:30.447Z,4.05
2023-05-04T11:05:01.144Z,5.07
2023-05-04T11:07:35.258Z,5.00
2023-05-04T11:10:03.806Z,5.10
2023-05-04T11:12:32.609Z,6.35
2023-05-04T11:15:08.475Z,6.55
2023-05-04T11:17:46.101Z,6.28
2023-05-04T11:20:21.002Z,5.40
2023-05-04T11:22:49.016Z,7.45
2023-05-04T11:25:17.432Z,4.75
2023-05-04T11:30:32.714Z,4.87
2023-05-04T11:33:02.342Z,4.93
2023-05-04T11:35:30.124Z,7.73
2023-05-04T11:41:32.989Z,4.57
2023-05-04T11:44:01.828Z,4.15
2023-05-04T11:46:29.929Z,5.35
2023-05-04T11:49:00.093Z,7.57
2023-05-04T11:51:29.161Z,6.40
2023-05-04T11:53:57.048Z,7.70
2023-05-04T11:56:24.702Z,6.33
2023-05-04T11:58:52.538Z,7.70
2023-05-04T12:01:21.171Z,4.05
2023-05-04T12:03:53.580Z,4.30
2023-05-04T12:06:35.338Z,5.47
2023-05-04T12:09:03.749Z,5.95
2023-05-04T12:11:31.410Z,3.22
2023-05-04T12:14:03.708Z,4.22
2023-05-04T12:16:31.788Z,4.70
2023-05-04T12:19:04.626Z,4.90
2023-05-04T12:21:32.823Z,7.43
2023-05-04T12:24:02.321Z,4.90
2023-05-04T12:26:32.474Z,5.10
2023-05-04T12:29:00.143Z,5.00
2023-05-04T12:31:28.827Z,3.72
2023-05-04T12:33:56.589Z,4.82
2023-05-04T12:36:24.381Z,4.93
2023-05-04T12:38:52.213Z,5.47
2023-05-04T12:41:21.548Z,2.88
2023-05-04T12:43:49.835Z,6.63
2023-05-04T12:46:21.353Z,2.75
2023-05-04T12:48:49.331Z,3.65
2023-05-04T12:51:17.024Z,4.85
2023-05-04T12:54:02.316Z,3.33
2023-05-04T12:56:32.207Z,3.25
2023-05-04T12:58:59.845Z,6.38
2023-05-04T13:01:28.263Z,5.47
2023-05-04T13:03:56.018Z,7.00
2023-05-04T13:06:23.828Z,3.60
2023-05-04T13:08:51.726Z,3.65
2023-05-04T13:11:20.208Z,4.47
2023-05-04T13:13:49.300Z,5.35
2023-05-04T13:16:17.424Z,4.18
2023-05-04T13:18:45.164Z,4.40
2023-05-04T13:21:12.806Z,5.15
2023-05-04T13:23:40.485Z,4.43
2023-05-04T13:26:08.161Z,4.03
2023-05-04T13:28:37.852Z,4.60
2023-05-04T13:31:08.835Z,6.03
2023-05-04T13:33:38.700Z,3.50
2023-05-04T13:36:07.473Z,3.28
2023-05-04T13:38:35.155Z,5.82
2023-05-04T13:41:03.065Z,3.60
2023-05-04T13:43:30.941Z,4.10
2023-05-04T13:46:26.138Z,5.25
2023-05-04T13:48:55.162Z,5.65
2023-05-04T13:51:24.576Z,7.00
2023-05-04T13:53:52.242Z,7.55
2023-05-04T13:56:19.908Z,4.53
2023-05-04T13:58:47.530Z,5.68
2023-05-04T14:01:16.015Z,5.05
2023-05-04T14:03:46.730Z,2.58
2023-05-04T14:06:14.678Z,6.18
2023-05-04T14:08:42.541Z,4.97
2023-05-04T14:11:10.445Z,3.92
2023-05-04T14:13:38.092Z,5.50
2023-05-04T14:16:06.792Z,3.55
2023-05-04T14:18:34.458Z,4.37
2023-05-04T14:21:03.530Z,4.78
2023-05-04T14:23:31.306Z,5.10
2023-05-04T14:25:59.010Z,3.85
2023-05-04T14:32:16.795Z,3.47
2023-05-04T14:34:44.783Z,4.40
2023-05-04T14:37:12.467Z,5.43
2023-05-04T14:39:40.731Z,4.20
2023-05-04T14:42:08.801Z,4.45
2023-05-04T14:44:36.981Z,5.77
2023-05-04T14:47:07.415Z,3.60
2023-05-04T14:49:42.840Z,6.35
2023-05-04T14:52:11.398Z,4.70
2023-05-04T14:54:39.058Z,5.03
2023-05-04T14:57:09.039Z,5.03
2023-05-04T14:59:37.777Z,3.90
2023-05-04T15:02:08.279Z,5.45
2023-05-04T15:04:37.421Z,3.60
2023-05-04T15:07:05.524Z,6.00
2023-05-04T15:09:33.304Z,5.93
2023-05-04T15:12:01.013Z,3.30
2023-05-04T15:14:28.713Z,5.35
2023-05-04T15:16:56.396Z,5.07
2023-05-04T15:19:24.143Z,7.03
2023-05-04T15:21:53.441Z,4.78
2023-05-04T15:24:21.374Z,6.68
2023-05-04T15:26:49.077Z,9.57
2023-05-04T15:29:16.778Z,2.75
2023-05-04T15:31:44.514Z,2.20
2023-05-04T15:34:12.277Z,2.83
2023-05-04T15:36:40.248Z,5.17
2023-05-04T15:39:10.185Z,3.47
2023-05-04T15:41:38.239Z,7.57
2023-05-04T15:44:06.944Z,4.88
2023-05-04T15:46:34.787Z,2.58
2023-05-04T15:49:02.535Z,3.42
2023-05-04T15:51:31.963Z,5.25
2023-05-04T15:54:00.187Z,7.38
2023-05-04T15:56:29.360Z,5.15
2023-05-04T15:58:57.077Z,2.55
2023-05-04T16:01:24.970Z,6.28
2023-05-04T16:04:01.075Z,7.90
2023-05-04T16:06:29.016Z,6.13
2023-05-04T16:08:56.778Z,3.70
2023-05-04T16:11:24.485Z,7.20
2023-05-04T16:13:53.577Z,5.43
2023-05-04T16:16:21.369Z,4.35
2023-05-04T16:18:49.081Z,2.72
2023-05-04T16:21:16.894Z,4.93
2023-05-04T16:23:44.579Z,4.38
2023-05-04T16:26:12.392Z,5.30
2023-05-04T16:28:41.542Z,4.88
2023-05-04T16:31:12.110Z,5.77
2023-05-04T16:33:41.364Z,3.95
2023-05-04T16:36:10.165Z,3.17
2023-05-04T16:38:37.894Z,5.22
2023-05-04T16:41:05.772Z,7.07
2023-05-04T16:43:33.585Z,3.55
2023-05-04T16:46:01.366Z,6.10
2023-05-04T16:48:30.708Z,4.10
2023-05-04T16:50:58.400Z,2.38
2023-05-04T16:53:26.109Z,2.40
2023-05-04T16:55:53.783Z,3.43
2023-05-04T16:58:21.446Z,7.32
2023-05-04T17:00:49.426Z,3.95
2023-05-04T17:03:17.275Z,12.43
2023-05-04T17:08:44.053Z,2.83
2023-05-04T17:11:11.813Z,5.07
2023-05-04T17:13:39.502Z,6.10
2023-05-04T17:16:07.983Z,5.20
2023-05-04T17:18:35.715Z,2.92
2023-05-04T17:24:35.982Z,4.13
2023-05-04T17:27:03.801Z,6.10
2023-05-04T17:29:32.479Z,8.15
2023-05-04T17:32:00.238Z,4.55
2023-05-04T17:34:27.990Z,3.50
2023-05-04T17:36:55.737Z,4.80
2023-05-04T17:39:23.429Z,3.38
2023-05-04T17:41:52.590Z,7.22
2023-05-04T17:44:20.312Z,3.97
2023-05-04T17:46:48.484Z,5.45
2023-05-04T17:49:19.095Z,4.03
2023-05-04T17:51:49.095Z,6.45
2023-05-04T17:54:17.001Z,4.70
2023-05-04T17:56:44.727Z,3.33
2023-05-04T17:59:13.847Z,5.47
2023-05-04T18:01:41.598Z,3.97
2023-05-04T18:04:09.374Z,2.92
2023-05-04T18:06:37.314Z,2.58
2023-05-04T18:09:05.421Z,7.53
2023-05-04T18:11:33.187Z,5.88
2023-05-04T18:14:00.978Z,3.88
2023-05-04T18:16:32.951Z,6.05
2023-05-04T18:19:01.375Z,4.30
2023-05-04T18:21:29.206Z,6.50
2023-05-04T18:23:57.085Z,5.15
2023-05-04T18:26:24.752Z,4.60
2023-05-04T18:28:52.521Z,7.43
2023-05-04T18:31:20.305Z,6.15
2023-05-04T18:33:50.183Z,4.93
2023-05-04T18:36:18.914Z,7.63
2023-05-04T18:38:49.710Z,5.00
2023-05-04T18:44:03.153Z,3.75
2023-05-04T18:46:30.858Z,4.13
2023-05-04T18:48:59.953Z,5.32
2023-05-04T18:51:28.087Z,3.83
2023-05-04T18:53:55.742Z,3.97
2023-05-04T18:56:23.472Z,6.55
2023-05-04T18:58:51.162Z,6.53
2023-05-04T19:01:19.101Z,6.45
2023-05-04T19:03:47.151Z,7.43
2023-05-04T19:06:16.304Z,5.78
2023-05-04T19:08:44.231Z,8.25
2023-05-04T19:11:12.068Z,5.95
2023-05-04T19:13:39.916Z,8.15
2023-05-04T19:16:12.690Z,4.40
2023-05-04T19:18:40.666Z,5.20
2023-05-04T19:21:08.373Z,5.45
2023-05-04T19:23:37.487Z,5.57
2023-05-04T19:26:05.956Z,3.45
2023-05-04T19:28:42.831Z,9.10
2023-05-04T19:31:10.542Z,7.05
2023-05-04T19:33:48.071Z,4.32
2023-05-04T19:36:16.996Z,7.70
2023-05-04T19:38:46.322Z,6.85
2023-05-04T19:41:14.784Z,6.78
2023-05-04T19:43:42.694Z,5.00
2023-05-04T19:46:10.471Z,8.77
2023-05-04T19:48:39.367Z,4.13
2023-05-04T19:51:07.069Z,5.85
2023-05-04T19:53:34.833Z,5.28
2023-05-04T19:56:03.989Z,7.50
2023-05-04T19:58:32.012Z,7.80
2023-05-04T20:00:59.748Z,9.18
2023-05-04T20:03:27.499Z,7.60
2023-05-04T20:05:55.626Z,5.15
2023-05-04T20:08:23.345Z,6.32
2023-05-04T20:10:51.071Z,9.77
2023-05-04T20:13:20.186Z,6.07
2023-05-04T20:15:47.937Z,7.28
2023-05-04T20:18:21.513Z,6.13
2023-05-04T20:20:49.337Z,8.48
2023-05-04T20:23:17.852Z,7.07
2023-05-04T20:25:46.192Z,5.10
2023-05-04T20:28:14.196Z,6.53
2023-05-04T20:30:43.395Z,6.70
2023-05-04T20:33:11.363Z,7.75
2023-05-04T20:35:41.504Z,5.03
2023-05-04T20:38:09.555Z,5.95
2023-05-04T20:40:37.626Z,5.47
2023-05-04T20:43:05.310Z,9.15
2023-05-04T20:45:33.430Z,5.15
2023-05-04T20:48:03.922Z,6.13
2023-05-04T20:50:31.856Z,5.55
2023-05-04T20:53:01.256Z,5.57
2023-05-04T20:55:28.970Z,8.57
2023-05-04T20:57:56.679Z,9.73
2023-05-04T21:00:25.385Z,7.03
2023-05-04T21:02:53.562Z,7.47
2023-05-04T21:05:22.752Z,9.30
2023-05-04T21:07:52.032Z,7.07
2023-05-04T21:10:20.550Z,9.63
2023-05-04T21:12:48.253Z,7.88
2023-05-04T21:15:16.537Z,8.15
2023-05-04T21:17:44.313Z,8.48
2023-05-04T21:20:12.302Z,7.32
2023-05-04T21:22:41.429Z,8.75
2023-05-04T21:25:09.604Z,9.43
2023-05-04T21:27:37.305Z,10.57
2023-05-04T21:30:05.597Z,7.47
2023-05-04T21:32:33.400Z,7.65
2023-05-04T21:35:01.740Z,6.85
2023-05-04T21:37:29.407Z,6.82
2023-05-04T21:39:58.497Z,10.75
2023-05-04T21:42:26.580Z,6.13
2023-05-04T21:44:55.127Z,8.45
2023-05-04T21:47:22.929Z,9.43
2023-05-04T21:49:51.840Z,9.70
2023-05-04T21:52:19.596Z,9.20
2023-05-04T21:54:47.252Z,7.63
2023-05-04T21:57:16.354Z,9.40
2023-05-04T21:59:44.048Z,9.23
2023-05-04T22:02:11.850Z,6.70
2023-05-04T22:04:43.282Z,6.15
2023-05-04T22:07:11.164Z,8.88
2023-05-04T22:09:41.490Z,9.48
2023-05-04T22:12:09.264Z,10.48
2023-05-04T22:14:39.456Z,8.82
2023-05-04T22:17:09.003Z,8.10
2023-05-04T22:19:36.814Z,10.48
2023-05-04T22:22:04.760Z,13.05
2023-05-04T22:24:32.699Z,8.73
2023-05-04T22:27:00.354Z,9.13
2023-05-04T22:29:28.085Z,10.07
2023-05-04T22:31:57.145Z,11.23
2023-05-04T22:34:24.928Z,10.07
2023-05-04T22:36:52.571Z,8.13
2023-05-04T22:39:20.654Z,9.57
2023-05-04T22:41:48.283Z,9.13
2023-05-04T22:44:15.932Z,9.38
2023-05-04T22:46:43.628Z,9.80
2023-05-04T22:49:12.791Z,9.35
2023-05-04T22:51:40.437Z,10.55
2023-05-04T22:54:08.115Z,9.82
2023-05-04T22:56:36.299Z,8.65
2023-05-04T22:59:04.750Z,9.95
2023-05-04T23:01:32.482Z,11.23
2023-05-04T23:04:00.343Z,10.60
2023-05-04T23:06:29.517Z,6.70
2023-05-04T23:08:57.146Z,11.73
2023-05-04T23:11:24.810Z,11.57
2023-05-04T23:13:52.522Z,9.15
2023-05-04T23:16:20.351Z,11.15
2023-05-04T23:18:48.859Z,10.53
2023-05-04T23:21:16.512Z,8.27
2023-05-04T23:23:46.023Z,15.38
2023-05-04T23:26:13.656Z,7.97
2023-05-04T23:28:41.520Z,8.95
2023-05-04T23:31:09.238Z,10.93
2023-05-04T23:33:36.971Z,11.15
2023-05-04T23:36:04.808Z,9.57
2023-05-04T23:38:32.488Z,9.32
2023-05-04T23:41:03.334Z,13.10
2023-05-04T23:43:31.824Z,11.68
2023-05-04T23:46:00.833Z,11.35
2023-05-04T23:48:28.770Z,7.90
2023-05-04T23:50:58.868Z,10.55
2023-05-04T23:53:26.902Z,10.05
2023-05-04T23:56:00.133Z,9.77
2023-05-04T23:58:45.534Z,9.85
